createdAt,value
2023-01-02T00:01:05.455Z,11.08
2023-01-02T00:04:08.820Z,11.10
2023-01-02T00:07:12.042Z,11.10
2023-01-02T00:10:15.321Z,11.09
2023-01-02T00:13:18.523Z,11.09
2023-01-02T00:16:21.804Z,11.10
2023-01-02T00:19:25.109Z,11.09
2023-01-02T00:22:29.763Z,11.10
2023-01-02T00:25:34.949Z,11.10
2023-01-02T00:28:38.904Z,11.09
2023-01-02T00:31:42.221Z,11.07
2023-01-02T00:34:45.491Z,11.06
2023-01-02T00:37:48.722Z,11.03
2023-01-02T00:40:51.934Z,11.02
2023-01-02T00:43:55.162Z,10.99
2023-01-02T00:46:58.361Z,10.96
2023-01-02T00:50:03.640Z,10.93
2023-01-02T00:53:06.902Z,10.90
2023-01-02T00:56:10.169Z,10.87
2023-01-02T00:59:13.450Z,10.86
2023-01-02T01:02:16.729Z,10.85
2023-01-02T01:05:20.038Z,10.82
2023-01-02T01:08:23.237Z,10.81
2023-01-02T01:11:26.433Z,10.81
2023-01-02T01:14:29.677Z,10.78
2023-01-02T01:17:33.615Z,10.77
2023-01-02T01:20:40.379Z,10.75
2023-01-02T01:23:44.481Z,10.74
2023-01-02T01:26:47.709Z,10.70
2023-01-02T01:29:50.919Z,10.63
2023-01-02T01:32:54.171Z,10.59
2023-01-02T01:36:11.185Z,10.54
2023-01-02T01:39:14.457Z,10.48
2023-01-02T01:42:18.653Z,10.43
2023-01-02T01:45:21.845Z,10.41
2023-01-02T01:48:25.155Z,10.40
2023-01-02T01:51:30.587Z,10.39
2023-01-02T01:54:54.672Z,10.38
2023-01-02T01:58:10.599Z,10.37
2023-01-02T02:01:17.188Z,10.37
2023-01-02T02:04:22.094Z,10.38
2023-01-02T02:07:25.785Z,10.39
2023-01-02T02:10:29.045Z,10.41
2023-01-02T02:13:33.954Z,10.43
2023-01-02T02:17:04.918Z,10.44
2023-01-02T02:20:26.242Z,10.45
2023-01-02T02:23:44.775Z,10.47
2023-01-02T02:26:59.714Z,10.48
2023-01-02T02:30:11.816Z,10.49
2023-01-02T02:33:31.712Z,10.50
2023-01-02T02:37:07.280Z,10.50
2023-01-02T02:40:23.981Z,10.49
2023-01-02T02:43:39.567Z,10.51
2023-01-02T02:47:12.357Z,10.54
2023-01-02T02:50:54.298Z,10.56
2023-01-02T02:54:09.064Z,10.58
2023-01-02T02:57:13.749Z,10.60
2023-01-02T03:00:22.756Z,10.61
2023-01-02T03:03:26.013Z,10.62
2023-01-02T03:06:41.328Z,10.61
2023-01-02T03:09:54.602Z,10.61
2023-01-02T03:13:16.781Z,10.58
2023-01-02T03:16:38.039Z,10.59
2023-01-02T03:19:50.237Z,10.58
2023-01-02T03:22:59.647Z,10.57
2023-01-02T03:26:05.239Z,10.56
2023-01-02T03:29:16.358Z,10.55
2023-01-02T03:32:28.957Z,10.56
2023-01-02T03:35:40.142Z,10.56
2023-01-02T03:39:19.232Z,10.57
2023-01-02T03:42:51.681Z,10.58
2023-01-02T03:46:14.011Z,10.58
2023-01-02T03:49:30.375Z,10.58
2023-01-02T03:52:33.816Z,10.57
2023-01-02T03:55:42.400Z,10.56
2023-01-02T03:59:14.424Z,10.56
2023-01-02T04:02:26.653Z,10.54
2023-01-02T04:05:37.142Z,10.53
2023-01-02T04:09:10.970Z,10.51
2023-01-02T04:12:17.878Z,10.51
2023-01-02T04:15:25.506Z,10.53
2023-01-02T04:18:46.183Z,10.54
2023-01-02T04:21:53.633Z,10.54
2023-01-02T04:25:07.083Z,10.54
2023-01-02T04:28:20.033Z,10.54
2023-01-02T04:31:46.399Z,10.56
2023-01-02T04:34:51.163Z,10.56
2023-01-02T04:37:54.399Z,10.57
2023-01-02T04:40:57.713Z,10.57
2023-01-02T04:44:01.112Z,10.57
2023-01-02T04:47:04.507Z,10.57
2023-01-02T04:50:08.554Z,10.58
2023-01-02T04:53:12.196Z,10.59
2023-01-02T04:56:15.880Z,10.57
2023-01-02T04:59:19.060Z,10.55
2023-01-02T05:02:22.364Z,10.53
2023-01-02T05:05:25.832Z,10.51
2023-01-02T05:08:29.960Z,10.51
2023-01-02T05:11:34.152Z,10.50
2023-01-02T05:14:37.412Z,10.50
2023-01-02T05:17:42.390Z,10.50
2023-01-02T05:20:45.732Z,10.50
2023-01-02T05:23:48.958Z,10.50
2023-01-02T05:26:52.205Z,10.47
2023-01-02T05:29:55.399Z,10.45
2023-01-02T05:32:58.675Z,10.43
2023-01-02T05:36:03.921Z,10.40
2023-01-02T05:39:14.534Z,10.38
2023-01-02T05:42:17.864Z,10.32
2023-01-02T05:45:21.035Z,10.29
2023-01-02T05:48:24.537Z,10.27
2023-01-02T05:51:27.732Z,10.24
2023-01-02T05:54:30.928Z,10.21
2023-01-02T05:57:35.264Z,10.19
2023-01-02T06:00:38.451Z,10.17
2023-01-02T06:03:48.477Z,10.15
2023-01-02T06:06:51.707Z,10.14
2023-01-02T06:09:54.859Z,10.13
2023-01-02T06:12:58.090Z,10.12
2023-01-02T06:16:02.929Z,10.11
2023-01-02T06:19:07.258Z,10.12
2023-01-02T06:22:10.547Z,10.13
2023-01-02T06:25:13.785Z,10.12
2023-01-02T06:28:17.010Z,10.14
2023-01-02T06:31:22.534Z,10.14
2023-01-02T06:34:25.761Z,10.14
2023-01-02T06:37:29.008Z,10.12
2023-01-02T06:40:32.171Z,10.11
2023-01-02T06:43:37.101Z,10.11
2023-01-02T06:46:40.397Z,10.12
2023-01-02T06:49:43.666Z,10.15
2023-01-02T06:52:46.848Z,10.17
2023-01-02T06:55:59.512Z,10.19
2023-01-02T06:59:02.656Z,10.20
2023-01-02T07:02:06.320Z,10.23
2023-01-02T07:05:11.072Z,10.26
2023-01-02T07:08:14.354Z,10.29
2023-01-02T07:11:20.558Z,10.30
2023-01-02T07:14:24.378Z,10.31
2023-01-02T07:17:27.588Z,10.35
2023-01-02T07:20:30.866Z,10.37
2023-01-02T07:23:34.496Z,10.41
2023-01-02T07:26:37.694Z,10.45
2023-01-02T07:29:40.922Z,10.48
2023-01-02T07:32:44.167Z,10.52
2023-01-02T07:35:47.324Z,10.55
2023-01-02T07:38:54.969Z,10.57
2023-01-02T07:41:58.314Z,10.62
2023-01-02T07:45:01.584Z,10.65
2023-01-02T07:48:05.071Z,10.68
2023-01-02T07:51:08.889Z,10.73
2023-01-02T07:54:12.145Z,10.76
2023-01-02T07:57:15.463Z,10.80
2023-01-02T08:00:21.159Z,10.83
2023-01-02T08:03:24.867Z,10.86
2023-01-02T08:06:28.846Z,10.88
2023-01-02T08:09:32.153Z,10.91
2023-01-02T08:12:35.465Z,10.96
2023-01-02T08:15:40.001Z,11.02
2023-01-02T08:18:43.890Z,11.06
2023-01-02T08:21:47.429Z,11.14
2023-01-02T08:24:51.250Z,11.24
2023-01-02T08:27:54.714Z,11.35
2023-01-02T08:30:58.514Z,11.41
2023-01-02T08:34:02.063Z,11.46
2023-01-02T08:37:05.331Z,11.51
2023-01-02T08:40:09.198Z,11.55
2023-01-02T08:43:12.526Z,11.62
2023-01-02T08:46:15.826Z,11.68
2023-01-02T08:49:19.297Z,11.76
2023-01-02T08:52:22.588Z,11.87
2023-01-02T08:55:25.918Z,12.00
2023-01-02T08:58:29.195Z,12.10
2023-01-02T09:01:33.518Z,12.19
2023-01-02T09:04:37.168Z,12.25
2023-01-02T09:07:40.926Z,12.32
2023-01-02T09:10:44.229Z,12.38
2023-01-02T09:13:47.523Z,12.44
2023-01-02T09:16:54.697Z,12.51
2023-01-02T09:19:57.994Z,12.58
2023-01-02T09:23:01.779Z,12.66
2023-01-02T09:26:07.500Z,12.74
2023-01-02T09:29:12.329Z,12.81
2023-01-02T09:32:15.668Z,12.90
2023-01-02T09:35:19.036Z,12.96
2023-01-02T09:38:22.357Z,12.98
2023-01-02T09:41:50.699Z,13.01
2023-01-02T09:44:59.512Z,13.03
2023-01-02T09:48:06.587Z,13.06
2023-01-02T09:51:11.689Z,13.09
2023-01-02T09:54:34.543Z,13.13
2023-01-02T09:58:02.596Z,13.16
2023-01-02T10:01:13.812Z,13.19
2023-01-02T10:04:24.159Z,13.21
2023-01-02T10:07:56.726Z,13.24
2023-01-02T10:11:02.866Z,13.28
2023-01-02T10:14:36.132Z,13.32
2023-01-02T10:17:48.606Z,13.36
2023-01-02T10:21:18.391Z,13.41
2023-01-02T10:24:40.586Z,13.47
2023-01-02T10:27:53.846Z,13.53
2023-01-02T10:31:27.468Z,13.57
2023-01-02T10:34:43.386Z,13.60
2023-01-02T10:37:46.806Z,13.59
2023-01-02T10:40:51.317Z,13.63
2023-01-02T10:43:58.272Z,13.69
2023-01-02T10:47:13.839Z,13.75
2023-01-02T10:50:28.267Z,13.85
2023-01-02T10:53:34.236Z,13.97
2023-01-02T10:56:41.621Z,14.09
2023-01-02T10:59:45.410Z,14.21
2023-01-02T11:02:55.523Z,14.29
2023-01-02T11:06:10.253Z,14.39
2023-01-02T11:09:23.971Z,14.51
2023-01-02T11:12:27.820Z,14.64
2023-01-02T11:15:34.861Z,14.79
2023-01-02T11:18:38.432Z,14.95
2023-01-02T11:21:43.968Z,15.11
2023-01-02T11:25:03.989Z,15.22
2023-01-02T11:28:20.255Z,15.34
2023-01-02T11:31:24.847Z,15.40
2023-01-02T11:34:53.633Z,15.42
2023-01-02T11:37:56.870Z,15.43
2023-01-02T11:41:02.327Z,15.44
2023-01-02T11:44:07.435Z,15.44
2023-01-02T11:47:13.515Z,15.39
2023-01-02T11:50:37.608Z,15.36
2023-01-02T11:53:46.176Z,15.30
2023-01-02T11:56:51.432Z,15.27
2023-01-02T11:59:58.226Z,15.27
2023-01-02T12:03:07.144Z,15.28
2023-01-02T12:06:21.137Z,15.30
2023-01-02T12:09:32.444Z,15.32
2023-01-02T12:12:54.559Z,15.32
2023-01-02T12:16:06.436Z,15.33
2023-01-02T12:19:37.292Z,15.33
2023-01-02T12:22:49.795Z,15.34
2023-01-02T12:26:19.304Z,15.32
2023-01-02T12:29:47.018Z,15.30
2023-01-02T12:33:34.186Z,15.29
2023-01-02T12:37:01.088Z,15.26
2023-01-02T12:40:27.143Z,15.24
2023-01-02T12:43:39.564Z,15.19
2023-01-02T12:46:52.098Z,15.14
2023-01-02T12:50:16.901Z,15.12
2023-01-02T12:53:44.693Z,15.10
2023-01-02T12:57:20.214Z,15.05
2023-01-02T13:00:39.572Z,15.01
2023-01-02T13:03:59.622Z,14.97
2023-01-02T13:07:17.883Z,14.92
2023-01-02T13:10:25.598Z,14.87
2023-01-02T13:13:36.995Z,14.81
2023-01-02T13:16:46.370Z,14.75
2023-01-02T13:20:19.981Z,14.70
2023-01-02T13:23:32.711Z,14.64
2023-01-02T13:26:39.120Z,14.58
2023-01-02T13:29:45.380Z,14.52
2023-01-02T13:32:49.102Z,14.45
2023-01-02T13:35:52.730Z,14.40
2023-01-02T13:39:05.557Z,14.35
2023-01-02T13:42:58.878Z,14.29
2023-01-02T13:46:02.635Z,14.23
2023-01-02T13:49:16.520Z,14.18
2023-01-02T13:52:22.020Z,14.15
2023-01-02T13:55:33.910Z,14.11
2023-01-02T13:58:38.934Z,14.06
2023-01-02T14:02:02.759Z,14.02
2023-01-02T14:05:44.410Z,13.99
2023-01-02T14:09:12.152Z,13.94
2023-01-02T14:12:15.548Z,13.89
2023-01-02T14:15:23.039Z,13.85
2023-01-02T14:18:30.990Z,13.80
2023-01-02T14:21:40.679Z,13.77
2023-01-02T14:24:53.645Z,13.72
2023-01-02T14:28:04.792Z,13.69
2023-01-02T14:31:18.738Z,13.64
2023-01-02T14:34:24.124Z,13.60
2023-01-02T14:37:35.457Z,13.55
2023-01-02T14:40:42.133Z,13.51
2023-01-02T14:43:49.531Z,13.48
2023-01-02T14:46:53.867Z,13.44
2023-01-02T14:49:59.868Z,13.40
2023-01-02T14:53:14.130Z,13.36
2023-01-02T14:56:24.095Z,13.33
2023-01-02T14:59:34.972Z,13.29
2023-01-02T15:02:44.624Z,13.26
2023-01-02T15:05:58.806Z,13.23
2023-01-02T15:09:27.771Z,13.19
2023-01-02T15:12:51.986Z,13.14
2023-01-02T15:15:59.915Z,13.09
2023-01-02T15:19:03.591Z,13.04
2023-01-02T15:22:19.443Z,13.00
2023-01-02T15:25:31.616Z,12.96
2023-01-02T15:28:34.884Z,12.91
2023-01-02T15:31:39.644Z,12.88
2023-01-02T15:34:43.090Z,12.85
2023-01-02T15:37:48.519Z,12.83
2023-01-02T15:40:54.980Z,12.80
2023-01-02T15:44:17.680Z,12.78
2023-01-02T15:47:27.652Z,12.75
2023-01-02T15:50:32.269Z,12.74
2023-01-02T15:53:41.477Z,12.71
2023-01-02T15:56:44.792Z,12.69
2023-01-02T15:59:48.412Z,12.67
2023-01-02T16:02:51.746Z,12.65
2023-01-02T16:05:57.553Z,12.62
2023-01-02T16:09:04.082Z,12.61
2023-01-02T16:12:20.904Z,12.59
2023-01-02T16:15:28.775Z,12.57
2023-01-02T16:18:41.990Z,12.54
2023-01-02T16:21:45.813Z,12.51
2023-01-02T16:24:54.548Z,12.49
2023-01-02T16:28:00.775Z,12.47
2023-01-02T16:31:10.089Z,12.44
2023-01-02T16:34:14.977Z,12.41
2023-01-02T16:37:32.042Z,12.39
2023-01-02T16:40:59.794Z,12.37
2023-01-02T16:44:16.970Z,12.34
2023-01-02T16:47:20.572Z,12.31
2023-01-02T16:50:27.042Z,12.28
2023-01-02T16:53:34.093Z,12.25
2023-01-02T16:56:48.578Z,12.23
2023-01-02T16:59:51.990Z,12.20
2023-01-02T17:02:55.453Z,12.17
2023-01-02T17:06:03.138Z,12.15
2023-01-02T17:09:06.716Z,12.12
2023-01-02T17:12:12.098Z,12.09
2023-01-02T17:15:16.865Z,12.06
2023-01-02T17:18:20.667Z,12.01
2023-01-02T17:21:27.759Z,11.97
2023-01-02T17:24:34.283Z,11.95
2023-01-02T17:27:37.868Z,11.94
2023-01-02T17:30:42.705Z,11.94
2023-01-02T17:33:46.060Z,11.92
2023-01-02T17:36:49.385Z,11.91
2023-01-02T17:39:53.942Z,11.89
2023-01-02T17:42:57.254Z,11.87
2023-01-02T17:46:30.279Z,11.86
2023-01-02T17:49:29.839Z,11.85
2023-01-02T17:52:33.461Z,11.81
2023-01-02T17:55:36.719Z,11.80
2023-01-02T17:58:40.212Z,11.78
2023-01-02T18:01:43.711Z,11.77
2023-01-02T18:04:54.642Z,11.75
2023-01-02T18:08:00.039Z,11.74
2023-01-02T18:11:08.899Z,11.72
2023-01-02T18:14:23.429Z,11.69
2023-01-02T18:17:30.391Z,11.68
2023-01-02T18:20:33.779Z,11.67
2023-01-02T18:23:36.953Z,11.66
2023-01-02T18:26:40.824Z,11.65
2023-01-02T18:29:45.132Z,11.62
2023-01-02T18:32:53.055Z,11.60
2023-01-02T18:36:02.827Z,11.58
2023-01-02T18:39:18.353Z,11.55
2023-01-02T18:42:26.593Z,11.55
2023-01-02T18:45:31.318Z,11.54
2023-01-02T18:48:34.597Z,11.54
2023-01-02T18:51:37.796Z,11.51
2023-01-02T18:54:45.767Z,11.50
2023-01-02T18:57:56.295Z,11.47
2023-01-02T19:01:00.390Z,11.45
2023-01-02T19:04:19.271Z,11.42
2023-01-02T19:07:30.435Z,11.40
2023-01-02T19:10:38.877Z,11.38
2023-01-02T19:13:42.111Z,11.36
2023-01-02T19:16:46.424Z,11.34
2023-01-02T19:19:50.197Z,11.31
2023-01-02T19:22:53.406Z,11.31
2023-01-02T19:26:13.092Z,11.30
2023-01-02T19:29:23.353Z,11.27
2023-01-02T19:32:32.658Z,11.25
2023-01-02T19:35:37.299Z,11.24
2023-01-02T19:38:40.777Z,11.23
2023-01-02T19:42:02.856Z,11.20
2023-01-02T19:45:08.284Z,11.17
2023-01-02T19:48:16.280Z,11.14
2023-01-02T19:51:21.767Z,11.12
2023-01-02T19:54:25.145Z,11.10
2023-01-02T19:57:28.408Z,11.07
2023-01-02T20:00:32.321Z,11.05
2023-01-02T20:03:35.625Z,11.03
2023-01-02T20:06:38.947Z,11.01
2023-01-02T20:09:42.561Z,11.00
2023-01-02T20:12:45.858Z,10.99
2023-01-02T20:15:49.101Z,10.97
2023-01-02T20:18:52.364Z,10.95
2023-01-02T20:21:55.809Z,10.93
2023-01-02T20:24:59.189Z,10.91
2023-01-02T20:28:04.214Z,10.88
2023-01-02T20:31:07.472Z,10.88
2023-01-02T20:34:10.820Z,10.84
2023-01-02T20:37:14.344Z,10.82
2023-01-02T20:40:17.604Z,10.82
2023-01-02T20:43:20.867Z,10.80
2023-01-02T20:46:24.205Z,10.79
2023-01-02T20:49:28.466Z,10.80
2023-01-02T20:52:31.764Z,10.81
2023-01-02T20:55:35.086Z,10.80
2023-01-02T20:58:39.393Z,10.78
2023-01-02T21:01:43.341Z,10.77
2023-01-02T21:04:46.634Z,10.76
2023-01-02T21:07:50.035Z,10.75
2023-01-02T21:10:53.285Z,10.77
2023-01-02T21:13:57.816Z,10.76
2023-01-02T21:17:01.016Z,10.76
2023-01-02T21:20:04.540Z,10.74
2023-01-02T21:23:08.109Z,10.73
2023-01-02T21:26:14.477Z,10.72
2023-01-02T21:29:17.700Z,10.72
2023-01-02T21:32:20.890Z,10.69
2023-01-02T21:35:24.456Z,10.66
2023-01-02T21:38:28.492Z,10.65
2023-01-02T21:41:50.384Z,10.64
2023-01-02T21:44:53.636Z,10.64
2023-01-02T21:47:57.368Z,10.61
2023-01-02T21:51:00.872Z,10.60
2023-01-02T21:54:04.636Z,10.57
2023-01-02T21:57:08.061Z,10.55
2023-01-02T22:00:16.304Z,10.55
2023-01-02T22:03:19.627Z,10.55
2023-01-02T22:06:23.947Z,10.55
2023-01-02T22:09:27.183Z,10.54
2023-01-02T22:12:30.372Z,10.54
2023-01-02T22:15:33.565Z,10.53
2023-01-02T22:18:38.427Z,10.53
2023-01-02T22:21:42.247Z,10.51
2023-01-02T22:24:47.395Z,10.51
2023-01-02T22:27:50.657Z,10.50
2023-01-02T22:30:53.870Z,10.48
2023-01-02T22:33:58.340Z,10.47
2023-01-02T22:37:02.083Z,10.46
2023-01-02T22:40:05.733Z,10.43
2023-01-02T22:43:12.658Z,10.40
2023-01-02T22:46:22.746Z,10.37
2023-01-02T22:49:30.387Z,10.32
2023-01-02T22:52:34.840Z,10.30
2023-01-02T22:55:38.046Z,10.29
2023-01-02T22:58:41.480Z,10.29
2023-01-02T23:01:46.467Z,10.28
2023-01-02T23:04:51.007Z,10.26
2023-01-02T23:07:54.254Z,10.24
2023-01-02T23:10:57.571Z,10.23
2023-01-02T23:14:01.052Z,10.22
2023-01-02T23:17:22.910Z,10.20
2023-01-02T23:20:26.660Z,10.19
2023-01-02T23:23:30.535Z,10.18
2023-01-02T23:26:43.761Z,10.17
2023-01-02T23:29:46.978Z,10.16
2023-01-02T23:32:50.218Z,10.14
2023-01-02T23:35:53.515Z,10.14
2023-01-02T23:38:57.055Z,10.15
2023-01-02T23:42:00.942Z,10.15
2023-01-02T23:45:04.564Z,10.12
2023-01-02T23:48:07.769Z,10.13
2023-01-02T23:51:10.972Z,10.14
2023-01-02T23:54:16.152Z,10.13
2023-01-02T23:57:19.387Z,10.10
